createdAt,value
2017-08-14T00:01:08.587Z,13.10
2017-08-14T00:03:37.624Z,13.10
2017-08-14T00:06:05.877Z,13.10
2017-08-14T00:08:34.918Z,13.10
2017-08-14T00:11:03.160Z,13.10
2017-08-14T00:13:31.456Z,13.10
2017-08-14T00:16:00.484Z,13.00
2017-08-14T00:18:28.738Z,12.90
2017-08-14T00:20:57.034Z,12.90
2017-08-14T00:23:25.280Z,12.90
2017-08-14T00:25:53.552Z,12.90
2017-08-14T00:28:21.773Z,12.80
2017-08-14T00:30:50.019Z,12.80
2017-08-14T00:33:18.321Z,12.80
2017-08-14T00:35:46.594Z,12.80
2017-08-14T00:38:14.855Z,12.70
2017-08-14T00:40:43.139Z,12.70
2017-08-14T00:43:11.406Z,12.70
2017-08-14T00:45:39.783Z,12.60
2017-08-14T00:48:08.063Z,12.60
2017-08-14T00:50:36.361Z,12.60
2017-08-14T00:53:04.582Z,12.60
2017-08-14T00:55:32.884Z,12.70
2017-08-14T00:58:01.274Z,12.80
2017-08-14T01:00:29.492Z,12.80
2017-08-14T01:02:58.545Z,12.90
2017-08-14T01:05:26.829Z,12.90
2017-08-14T01:07:55.523Z,13.00
2017-08-14T01:10:23.736Z,13.00
2017-08-14T01:12:52.765Z,13.10
2017-08-14T01:15:21.045Z,13.10
2017-08-14T01:17:49.337Z,13.20
2017-08-14T01:20:17.597Z,13.20
2017-08-14T01:22:45.862Z,13.30
2017-08-14T01:25:14.890Z,13.20
2017-08-14T01:27:43.162Z,13.20
2017-08-14T01:30:11.431Z,13.20
2017-08-14T01:32:39.668Z,13.30
2017-08-14T01:35:08.685Z,13.40
2017-08-14T01:37:36.936Z,13.30
2017-08-14T01:40:05.957Z,13.40
2017-08-14T01:42:34.218Z,13.30
2017-08-14T01:45:03.261Z,13.40
2017-08-14T01:47:31.494Z,13.40
2017-08-14T01:49:59.762Z,13.40
2017-08-14T01:52:28.783Z,13.30
2017-08-14T01:54:57.080Z,13.30
2017-08-14T01:57:25.310Z,13.30
2017-08-14T01:59:54.375Z,13.30
2017-08-14T02:02:22.625Z,13.30
2017-08-14T02:04:50.876Z,13.30
2017-08-14T02:07:19.135Z,13.20
2017-08-14T02:09:49.200Z,13.10
2017-08-14T02:12:17.426Z,13.10
2017-08-14T02:14:46.466Z,13.20
2017-08-14T02:17:14.691Z,13.10
2017-08-14T02:19:42.951Z,13.10
2017-08-14T02:22:11.222Z,13.10
2017-08-14T02:24:39.463Z,13.10
2017-08-14T02:27:07.723Z,13.20
2017-08-14T02:29:35.975Z,13.20
2017-08-14T02:32:05.024Z,13.20
2017-08-14T02:34:33.257Z,13.20
2017-08-14T02:37:02.282Z,13.10
2017-08-14T02:39:30.552Z,13.10
2017-08-14T02:41:58.790Z,13.10
2017-08-14T02:44:27.088Z,13.10
2017-08-14T02:46:55.309Z,13.10
2017-08-14T02:49:23.561Z,13.10
2017-08-14T02:51:51.841Z,13.10
2017-08-14T02:54:20.134Z,13.10
2017-08-14T02:56:48.384Z,13.10
2017-08-14T02:59:16.665Z,13.10
2017-08-14T03:01:44.913Z,13.10
2017-08-14T03:04:13.162Z,13.10
2017-08-14T03:06:41.412Z,13.10
2017-08-14T03:09:09.673Z,13.00
2017-08-14T03:11:38.710Z,13.00
2017-08-14T03:14:06.974Z,13.10
2017-08-14T03:16:35.233Z,13.00
2017-08-14T03:19:03.530Z,13.00
2017-08-14T03:21:31.786Z,13.00
2017-08-14T03:24:00.275Z,13.00
2017-08-14T03:26:28.521Z,12.90
2017-08-14T03:28:57.565Z,12.90
2017-08-14T03:31:25.838Z,12.80
2017-08-14T03:33:54.081Z,12.80
2017-08-14T03:36:23.125Z,12.70
2017-08-14T03:38:51.346Z,12.70
2017-08-14T03:41:20.378Z,12.70
2017-08-14T03:43:48.610Z,12.70
2017-08-14T03:46:17.642Z,12.80
2017-08-14T03:48:45.906Z,12.70
2017-08-14T03:51:14.158Z,12.70
2017-08-14T03:53:42.766Z,12.70
2017-08-14T03:56:11.782Z,12.60
2017-08-14T03:58:40.042Z,12.60
2017-08-14T04:01:08.323Z,12.60
2017-08-14T04:03:36.586Z,12.60
2017-08-14T04:06:04.912Z,12.60
2017-08-14T04:08:33.202Z,12.60
2017-08-14T04:11:01.522Z,12.60
2017-08-14T04:13:30.542Z,12.60
2017-08-14T04:16:01.751Z,12.60
2017-08-14T04:18:30.786Z,12.60
2017-08-14T04:20:59.039Z,12.60
2017-08-14T04:23:27.296Z,12.60
2017-08-14T04:25:56.321Z,12.60
2017-08-14T04:28:24.543Z,12.60
2017-08-14T04:30:52.818Z,12.60
2017-08-14T04:33:21.047Z,12.60
2017-08-14T04:35:49.336Z,12.70
2017-08-14T04:38:17.619Z,12.70
2017-08-14T04:40:45.850Z,12.70
2017-08-14T04:43:14.879Z,12.70
2017-08-14T04:45:43.139Z,12.60
2017-08-14T04:48:11.407Z,12.70
2017-08-14T04:50:39.702Z,12.80
2017-08-14T04:53:08.207Z,12.80
2017-08-14T04:55:36.530Z,12.80
2017-08-14T04:58:05.536Z,14.00
2017-08-14T05:00:34.587Z,14.70
2017-08-14T05:03:02.864Z,14.70
2017-08-14T05:05:31.155Z,14.90
2017-08-14T05:07:59.418Z,14.70
2017-08-14T05:10:27.713Z,14.60
2017-08-14T05:12:55.987Z,14.40
2017-08-14T05:15:24.241Z,14.30
2017-08-14T05:17:52.474Z,14.10
2017-08-14T05:20:21.508Z,13.90
2017-08-14T05:22:49.766Z,13.90
2017-08-14T05:25:18.022Z,13.90
2017-08-14T05:27:47.069Z,13.80
2017-08-14T05:30:15.302Z,13.80
2017-08-14T05:32:43.642Z,13.80
2017-08-14T05:35:11.990Z,13.70
2017-08-14T05:37:40.238Z,13.70
2017-08-14T05:40:09.246Z,13.70
2017-08-14T05:42:37.496Z,13.70
2017-08-14T05:45:05.732Z,13.70
2017-08-14T05:47:34.093Z,13.80
2017-08-14T05:50:03.097Z,13.90
2017-08-14T05:52:31.399Z,13.80
2017-08-14T05:55:00.429Z,13.90
2017-08-14T05:57:28.698Z,13.80
2017-08-14T05:59:57.697Z,14.00
2017-08-14T06:02:26.723Z,13.90
2017-08-14T06:04:54.986Z,14.00
2017-08-14T06:07:23.201Z,14.00
2017-08-14T06:09:51.512Z,14.00
2017-08-14T06:12:19.748Z,14.10
2017-08-14T06:14:47.984Z,14.20
2017-08-14T06:17:16.247Z,14.30
2017-08-14T06:19:45.263Z,14.50
2017-08-14T06:22:13.509Z,14.50
2017-08-14T06:24:42.573Z,14.50
2017-08-14T06:27:10.806Z,14.60
2017-08-14T06:29:39.087Z,14.60
2017-08-14T06:32:07.344Z,14.70
2017-08-14T06:34:36.375Z,14.90
2017-08-14T06:37:04.641Z,14.90
2017-08-14T06:39:32.885Z,15.10
2017-08-14T06:42:01.742Z,15.10
2017-08-14T06:44:30.822Z,15.20
2017-08-14T06:46:59.105Z,15.30
2017-08-14T06:49:27.353Z,15.40
2017-08-14T06:51:55.635Z,15.40
2017-08-14T06:54:23.905Z,15.50
2017-08-14T06:56:52.950Z,15.70
2017-08-14T06:59:21.197Z,15.70
2017-08-14T07:01:49.481Z,15.90
2017-08-14T07:04:17.737Z,16.10
2017-08-14T07:06:46.004Z,16.10
2017-08-14T07:09:14.241Z,16.30
2017-08-14T07:11:42.494Z,16.30
2017-08-14T07:14:10.751Z,16.40
2017-08-14T07:16:38.978Z,16.60
2017-08-14T07:19:07.235Z,16.70
2017-08-14T07:21:35.495Z,16.80
2017-08-14T07:24:03.732Z,16.90
2017-08-14T07:26:32.794Z,17.20
2017-08-14T07:29:01.065Z,17.20
2017-08-14T07:31:29.345Z,17.20
2017-08-14T07:33:57.700Z,17.30
2017-08-14T07:36:25.945Z,17.50
2017-08-14T07:38:54.951Z,17.70
2017-08-14T07:41:23.205Z,17.70
2017-08-14T07:43:52.265Z,18.00
2017-08-14T07:46:20.509Z,18.00
2017-08-14T07:48:48.797Z,18.10
2017-08-14T07:51:17.798Z,18.40
2017-08-14T07:53:46.213Z,18.40
2017-08-14T07:56:14.441Z,18.60
2017-08-14T07:58:42.741Z,18.70
2017-08-14T08:01:10.986Z,18.80
2017-08-14T08:03:39.217Z,18.90
2017-08-14T08:06:07.473Z,19.00
2017-08-14T08:08:35.715Z,19.20
2017-08-14T08:11:03.952Z,19.20
2017-08-14T08:13:32.229Z,19.30
2017-08-14T08:16:01.300Z,19.50
2017-08-14T08:18:29.600Z,19.50
2017-08-14T08:20:58.014Z,19.70
2017-08-14T08:23:26.231Z,19.80
2017-08-14T08:25:54.515Z,20.00
2017-08-14T08:28:22.739Z,20.10
2017-08-14T08:30:51.768Z,20.40
2017-08-14T08:33:20.071Z,20.40
2017-08-14T08:35:48.349Z,20.50
2017-08-14T08:38:16.916Z,20.60
2017-08-14T08:40:45.155Z,20.60
2017-08-14T08:43:14.194Z,20.70
2017-08-14T08:45:43.411Z,20.70
2017-08-14T08:48:11.669Z,20.80
2017-08-14T08:50:39.986Z,20.80
2017-08-14T08:53:08.226Z,20.90
2017-08-14T08:55:36.478Z,21.10
2017-08-14T08:58:04.987Z,21.20
2017-08-14T09:00:33.253Z,21.30
2017-08-14T09:03:02.673Z,21.40
2017-08-14T09:05:31.856Z,21.50
2017-08-14T09:08:00.326Z,21.60
2017-08-14T09:10:29.305Z,21.80
2017-08-14T09:12:57.534Z,21.80
2017-08-14T09:15:25.841Z,22.00
2017-08-14T09:17:54.883Z,22.10
2017-08-14T09:20:23.123Z,22.10
2017-08-14T09:22:52.154Z,22.30
2017-08-14T09:25:20.427Z,22.30
2017-08-14T09:27:48.658Z,22.30
2017-08-14T09:30:17.732Z,22.50
2017-08-14T09:32:45.956Z,22.60
2017-08-14T09:35:14.197Z,22.60
2017-08-14T09:37:42.447Z,22.80
2017-08-14T09:40:10.722Z,22.90
2017-08-14T09:42:38.980Z,23.00
2017-08-14T09:45:07.224Z,23.00
2017-08-14T09:47:36.273Z,23.20
2017-08-14T09:50:04.529Z,23.10
2017-08-14T09:52:32.762Z,23.20
2017-08-14T09:55:01.788Z,23.40
2017-08-14T09:57:30.047Z,23.40
2017-08-14T09:59:58.271Z,23.40
2017-08-14T10:02:26.530Z,23.50
2017-08-14T10:04:54.790Z,23.80
2017-08-14T10:07:23.054Z,23.80
2017-08-14T10:09:51.353Z,23.70
2017-08-14T10:12:19.573Z,23.70
2017-08-14T10:14:47.825Z,23.80
2017-08-14T10:17:16.096Z,23.90
2017-08-14T10:19:44.382Z,24.00
2017-08-14T10:22:12.698Z,24.30
2017-08-14T10:24:40.970Z,24.30
2017-08-14T10:27:09.198Z,24.50
2017-08-14T10:29:37.885Z,24.70
2017-08-14T10:32:06.142Z,24.90
2017-08-14T10:34:34.396Z,25.10
2017-08-14T10:37:03.407Z,25.60
2017-08-14T10:39:31.688Z,25.50
2017-08-14T10:41:59.959Z,25.40
2017-08-14T10:44:28.974Z,25.60
2017-08-14T10:46:57.209Z,25.50
2017-08-14T10:49:25.525Z,25.70
2017-08-14T10:51:53.833Z,25.80
2017-08-14T10:54:22.072Z,25.80
2017-08-14T10:56:50.337Z,25.90
2017-08-14T10:59:18.598Z,25.80
2017-08-14T11:01:47.637Z,25.60
2017-08-14T11:04:15.883Z,25.70
2017-08-14T11:06:44.915Z,25.50
2017-08-14T11:09:13.197Z,25.40
2017-08-14T11:11:41.435Z,25.40
2017-08-14T11:14:10.563Z,25.60
2017-08-14T11:16:39.972Z,25.10
2017-08-14T11:19:08.266Z,25.00
2017-08-14T11:21:36.470Z,24.90
2017-08-14T11:24:04.747Z,25.10
2017-08-14T11:26:33.023Z,25.20
2017-08-14T11:29:01.273Z,25.40
2017-08-14T11:31:29.593Z,25.40
2017-08-14T11:33:58.613Z,26.00
2017-08-14T11:36:26.846Z,25.90
2017-08-14T11:38:55.113Z,26.10
2017-08-14T11:41:23.393Z,25.40
2017-08-14T11:43:51.646Z,25.20
2017-08-14T11:46:19.922Z,24.90
2017-08-14T11:48:48.551Z,24.70
2017-08-14T11:51:16.938Z,24.60
2017-08-14T11:53:45.183Z,25.00
2017-08-14T11:56:13.435Z,25.40
2017-08-14T11:58:41.726Z,25.70
2017-08-14T12:01:09.959Z,25.70
2017-08-14T12:03:38.266Z,25.80
2017-08-14T12:06:06.507Z,25.90
2017-08-14T12:08:35.196Z,25.90
2017-08-14T12:11:03.449Z,25.70
2017-08-14T12:13:32.470Z,25.60
2017-08-14T12:16:01.592Z,25.70
2017-08-14T12:18:29.823Z,25.60
2017-08-14T12:20:58.837Z,26.10
2017-08-14T12:23:27.126Z,26.10
2017-08-14T12:25:55.418Z,26.30
2017-08-14T12:28:23.662Z,26.30
2017-08-14T12:30:52.689Z,26.10
2017-08-14T12:33:20.943Z,26.10
2017-08-14T12:35:49.185Z,26.10
2017-08-14T12:38:17.419Z,26.10
2017-08-14T12:40:45.698Z,26.10
2017-08-14T12:43:14.769Z,26.30
2017-08-14T12:45:43.039Z,26.30
2017-08-14T12:48:11.273Z,26.20
2017-08-14T12:50:39.576Z,26.30
2017-08-14T12:53:07.807Z,26.50
2017-08-14T12:55:36.094Z,26.70
2017-08-14T12:58:04.365Z,26.50
2017-08-14T13:00:32.597Z,26.20
2017-08-14T13:03:00.834Z,25.90
2017-08-14T13:05:29.083Z,25.80
2017-08-14T13:07:57.345Z,25.90
2017-08-14T13:10:25.768Z,26.00
2017-08-14T13:12:54.079Z,26.30
2017-08-14T13:15:23.119Z,26.30
2017-08-14T13:17:51.433Z,26.30
2017-08-14T13:20:20.593Z,26.50
2017-08-14T13:22:48.831Z,26.60
2017-08-14T13:25:17.890Z,26.90
2017-08-14T13:27:46.154Z,26.90
2017-08-14T13:30:14.421Z,27.10
2017-08-14T13:32:42.693Z,27.00
2017-08-14T13:35:10.966Z,26.90
2017-08-14T13:37:39.264Z,27.00
2017-08-14T13:40:07.517Z,27.00
2017-08-14T13:42:37.391Z,26.80
2017-08-14T13:45:05.642Z,26.70
2017-08-14T13:47:33.888Z,26.90
2017-08-14T13:50:02.137Z,26.60
2017-08-14T13:52:31.160Z,26.80
2017-08-14T13:54:59.705Z,26.80
2017-08-14T13:57:28.805Z,26.60
2017-08-14T13:59:57.818Z,26.60
2017-08-14T14:02:26.119Z,26.60
2017-08-14T14:04:54.373Z,26.40
2017-08-14T14:07:23.431Z,26.30
2017-08-14T14:09:51.659Z,26.30
2017-08-14T14:12:19.946Z,26.50
2017-08-14T14:14:48.215Z,26.60
2017-08-14T14:17:16.453Z,26.70
2017-08-14T14:19:45.501Z,26.50
2017-08-14T14:22:13.757Z,26.50
2017-08-14T14:24:41.993Z,26.40
2017-08-14T14:27:10.306Z,26.40
2017-08-14T14:29:39.421Z,26.30
2017-08-14T14:32:07.666Z,26.30
2017-08-14T14:34:35.929Z,26.20
2017-08-14T14:37:04.174Z,26.20
2017-08-14T14:39:32.453Z,26.10
2017-08-14T14:42:00.866Z,26.10
2017-08-14T14:44:29.097Z,26.10
2017-08-14T14:46:57.383Z,26.00
2017-08-14T14:49:25.601Z,25.90
2017-08-14T14:51:53.911Z,25.80
2017-08-14T14:54:22.200Z,25.70
2017-08-14T14:56:50.439Z,25.60
2017-08-14T14:59:18.759Z,25.50
2017-08-14T15:01:47.039Z,25.60
2017-08-14T15:04:15.306Z,25.70
2017-08-14T15:06:43.601Z,25.70
2017-08-14T15:09:11.822Z,25.80
2017-08-14T15:11:40.857Z,25.80
2017-08-14T15:14:09.111Z,25.80
2017-08-14T15:16:38.082Z,25.90
2017-08-14T15:19:06.360Z,26.00
2017-08-14T15:21:35.500Z,26.00
2017-08-14T15:24:04.475Z,26.00
2017-08-14T15:26:32.707Z,26.00
2017-08-14T15:29:00.991Z,26.00
2017-08-14T15:31:29.256Z,25.90
2017-08-14T15:33:57.555Z,25.90
2017-08-14T15:36:26.583Z,25.80
2017-08-14T15:38:54.946Z,25.80
2017-08-14T15:41:23.990Z,25.90
2017-08-14T15:43:52.254Z,25.80
2017-08-14T15:46:20.502Z,25.90
2017-08-14T15:48:49.534Z,26.10
2017-08-14T15:51:17.787Z,26.10
2017-08-14T15:53:46.039Z,26.20
2017-08-14T15:56:15.042Z,26.40
2017-08-14T15:58:43.310Z,26.30
2017-08-14T16:01:11.587Z,26.30
2017-08-14T16:03:40.624Z,26.30
2017-08-14T16:06:08.898Z,26.30
2017-08-14T16:08:37.171Z,26.20
2017-08-14T16:11:05.412Z,26.10
2017-08-14T16:13:33.668Z,25.90
2017-08-14T16:16:01.949Z,25.70
2017-08-14T16:18:31.137Z,25.70
2017-08-14T16:20:59.390Z,25.60
2017-08-14T16:23:27.694Z,25.60
2017-08-14T16:25:55.947Z,25.60
2017-08-14T16:28:24.219Z,25.60
2017-08-14T16:30:52.457Z,25.60
2017-08-14T16:33:21.516Z,25.40
2017-08-14T16:35:49.769Z,25.40
2017-08-14T16:38:18.033Z,25.30
2017-08-14T16:40:46.297Z,25.30
2017-08-14T16:43:14.580Z,25.40
2017-08-14T16:45:43.666Z,25.50
2017-08-14T16:48:13.994Z,25.60
2017-08-14T16:50:43.028Z,25.60
2017-08-14T16:53:11.283Z,25.70
2017-08-14T16:55:40.283Z,25.80
2017-08-14T16:58:09.070Z,25.80
2017-08-14T17:00:37.666Z,25.80
2017-08-14T17:03:06.204Z,25.90
2017-08-14T17:05:34.460Z,25.80
2017-08-14T17:08:04.089Z,25.70
2017-08-14T17:10:33.075Z,25.70
2017-08-14T17:13:02.497Z,25.50
2017-08-14T17:15:30.925Z,25.40
2017-08-14T17:17:59.247Z,25.40
2017-08-14T17:20:28.894Z,25.30
2017-08-14T17:22:57.490Z,25.30
2017-08-14T17:25:25.811Z,25.40
2017-08-14T17:27:54.823Z,25.30
2017-08-14T17:30:23.947Z,25.30
2017-08-14T17:32:52.557Z,25.20
2017-08-14T17:35:20.867Z,25.10
2017-08-14T17:37:49.157Z,25.10
2017-08-14T17:40:18.794Z,25.00
2017-08-14T17:42:47.058Z,25.00
2017-08-14T17:45:15.685Z,25.00
2017-08-14T17:47:45.988Z,24.80
2017-08-14T17:50:14.290Z,24.80
2017-08-14T17:52:42.577Z,24.80
2017-08-14T17:55:10.830Z,24.80
2017-08-14T17:57:40.018Z,24.70
2017-08-14T18:00:08.297Z,24.60
2017-08-14T18:02:36.582Z,24.50
2017-08-14T18:05:05.222Z,24.40
2017-08-14T18:07:34.251Z,24.40
2017-08-14T18:10:02.597Z,24.40
2017-08-14T18:12:31.626Z,24.30
2017-08-14T18:15:00.642Z,24.30
2017-08-14T18:17:29.406Z,24.30
2017-08-14T18:19:58.444Z,24.20
2017-08-14T18:22:26.811Z,24.10
2017-08-14T18:24:55.467Z,24.10
2017-08-14T18:27:23.737Z,24.00
2017-08-14T18:29:52.043Z,23.90
2017-08-14T18:32:20.292Z,23.80
2017-08-14T18:34:49.555Z,23.80
2017-08-14T18:37:19.051Z,23.70
2017-08-14T18:39:48.195Z,23.70
2017-08-14T18:42:17.661Z,23.40
2017-08-14T18:44:45.930Z,23.40
2017-08-14T18:47:14.196Z,23.30
2017-08-14T18:49:42.503Z,23.10
2017-08-14T18:52:11.520Z,22.90
2017-08-14T18:54:40.246Z,22.90
2017-08-14T18:57:09.063Z,22.80
2017-08-14T18:59:37.340Z,22.60
2017-08-14T19:02:05.572Z,22.60
2017-08-14T19:04:33.911Z,22.50
2017-08-14T19:07:03.013Z,22.30
2017-08-14T19:09:33.045Z,22.10
2017-08-14T19:12:00.340Z,22.10
2017-08-14T19:14:29.509Z,22.00
2017-08-14T19:16:59.415Z,21.70
2017-08-14T19:19:27.746Z,21.70
2017-08-14T19:21:56.391Z,21.60
2017-08-14T19:24:24.667Z,21.40
2017-08-14T19:26:53.667Z,21.30
2017-08-14T19:29:21.946Z,21.10
2017-08-14T19:31:50.479Z,21.00
2017-08-14T19:34:18.754Z,20.90
2017-08-14T19:36:48.146Z,20.90
2017-08-14T19:39:16.452Z,20.80
2017-08-14T19:41:44.751Z,21.00
2017-08-14T19:44:13.143Z,20.90
2017-08-14T19:46:42.143Z,20.80
2017-08-14T19:49:11.583Z,20.70
2017-08-14T19:51:39.938Z,20.50
2017-08-14T19:54:08.765Z,20.50
2017-08-14T19:56:37.607Z,20.50
2017-08-14T19:59:07.500Z,20.40
2017-08-14T20:01:35.939Z,20.30
2017-08-14T20:04:04.501Z,20.20
2017-08-14T20:06:33.213Z,20.20
2017-08-14T20:09:01.647Z,20.00
2017-08-14T20:11:30.348Z,20.00
2017-08-14T20:13:59.517Z,19.80
2017-08-14T20:16:27.850Z,19.80
2017-08-14T20:18:56.357Z,19.70
2017-08-14T20:21:25.457Z,19.70
2017-08-14T20:23:56.280Z,19.70
2017-08-14T20:26:25.741Z,19.60
2017-08-14T20:28:55.556Z,19.50
2017-08-14T20:31:24.321Z,19.40
2017-08-14T20:33:53.404Z,19.30
2017-08-14T20:36:22.443Z,19.20
2017-08-14T20:38:50.743Z,19.20
2017-08-14T20:41:19.628Z,19.10
2017-08-14T20:43:48.810Z,19.10
2017-08-14T20:46:17.157Z,19.20
2017-08-14T20:48:46.690Z,19.20
2017-08-14T20:51:17.097Z,19.10
2017-08-14T20:53:46.088Z,19.10
2017-08-14T20:56:17.349Z,19.10
2017-08-14T20:58:46.175Z,19.20
2017-08-14T21:01:15.455Z,19.20
2017-08-14T21:03:43.788Z,19.40
2017-08-14T21:06:12.873Z,19.40
2017-08-14T21:08:42.637Z,19.10
2017-08-14T21:11:10.914Z,19.20
2017-08-14T21:13:39.149Z,19.20
2017-08-14T21:16:08.189Z,19.00
2017-08-14T21:18:36.863Z,18.90
2017-08-14T21:21:05.854Z,18.90
2017-08-14T21:23:34.115Z,18.90
2017-08-14T21:26:03.392Z,19.20
2017-08-14T21:28:31.860Z,19.20
2017-08-14T21:31:00.883Z,19.30
2017-08-14T21:33:30.152Z,19.40
2017-08-14T21:35:58.400Z,19.50
2017-08-14T21:38:26.668Z,19.50
2017-08-14T21:40:54.933Z,19.50
2017-08-14T21:43:23.388Z,19.50
2017-08-14T21:45:52.668Z,19.40
2017-08-14T21:48:20.879Z,19.40
2017-08-14T21:50:49.146Z,19.40
2017-08-14T21:53:17.414Z,19.30
2017-08-14T21:55:45.656Z,19.30
2017-08-14T21:58:13.921Z,19.20
2017-08-14T22:00:42.179Z,19.20
2017-08-14T22:03:10.462Z,19.10
2017-08-14T22:05:38.706Z,19.10
2017-08-14T22:08:07.016Z,19.10
2017-08-14T22:10:35.267Z,19.10
2017-08-14T22:13:03.529Z,19.10
2017-08-14T22:15:32.603Z,19.10
2017-08-14T22:18:01.419Z,19.10
2017-08-14T22:20:29.674Z,19.10
2017-08-14T22:22:58.986Z,19.10
2017-08-14T22:25:28.025Z,19.10
2017-08-14T22:27:56.275Z,19.10
2017-08-14T22:30:26.840Z,19.10
2017-08-14T22:32:55.066Z,19.10
2017-08-14T22:35:24.074Z,19.20
2017-08-14T22:37:53.180Z,19.20
2017-08-14T22:40:22.611Z,19.30
2017-08-14T22:42:50.896Z,19.30
2017-08-14T22:45:20.288Z,19.20
2017-08-14T22:47:49.504Z,19.20
2017-08-14T22:50:17.872Z,19.20
2017-08-14T22:52:46.117Z,19.20
2017-08-14T22:55:15.139Z,19.30
2017-08-14T22:57:43.982Z,19.30
2017-08-14T23:00:13.282Z,19.40
2017-08-14T23:02:42.313Z,19.40
2017-08-14T23:05:10.767Z,19.40
2017-08-14T23:07:39.029Z,19.30
2017-08-14T23:10:07.927Z,19.30
2017-08-14T23:12:36.961Z,19.20
2017-08-14T23:15:05.987Z,19.20
2017-08-14T23:17:34.240Z,19.20
2017-08-14T23:20:02.475Z,19.10
2017-08-14T23:22:30.982Z,18.90
2017-08-14T23:24:59.263Z,18.80
2017-08-14T23:27:28.266Z,18.80
2017-08-14T23:29:56.600Z,18.80
2017-08-14T23:32:24.866Z,18.70
2017-08-14T23:34:53.109Z,18.60
2017-08-14T23:37:21.363Z,18.60
2017-08-14T23:39:49.637Z,18.60
2017-08-14T23:42:17.884Z,18.40
2017-08-14T23:44:46.121Z,18.20
2017-08-14T23:47:14.378Z,18.20
2017-08-14T23:49:42.601Z,18.30
2017-08-14T23:52:10.848Z,18.40
2017-08-14T23:54:39.096Z,18.50
2017-08-14T23:57:08.089Z,18.50
2017-08-14T23:59:36.396Z,18.50
